createdAt,value
2023-05-13T00:01:11.235Z,22.13
2023-05-13T00:30:11.914Z,22.1
2023-05-13T03:53:36.040Z,21.96
2023-05-13T04:22:31.571Z,21.93
2023-05-13T04:51:32.265Z,21.99
2023-05-13T05:20:16.984Z,22.03
2023-05-13T05:49:15.563Z,22
2023-05-13T06:18:19.789Z,22.01
2023-05-13T06:47:10.217Z,22.06
2023-05-13T07:16:01.721Z,22.13
2023-05-13T07:44:50.451Z,22.12
2023-05-13T08:13:35.033Z,22.16
2023-05-13T08:42:32.849Z,22.33
2023-05-13T09:11:25.269Z,22.5
2023-05-13T09:40:17.188Z,22.56
2023-05-13T10:09:13.326Z,22.56
2023-05-13T10:38:03.962Z,22.59
2023-05-13T11:06:53.226Z,22.82
2023-05-13T11:35:55.227Z,22.92
2023-05-13T12:04:46.774Z,22.47
2023-05-13T12:33:29.543Z,22.24
2023-05-13T13:02:18.239Z,22.42
2023-05-13T13:31:09.605Z,22.43
2023-05-13T13:59:52.196Z,22.39
2023-05-13T14:28:35.023Z,22.38
2023-05-13T14:57:32.212Z,22.52
2023-05-13T15:26:21.390Z,22.55
2023-05-13T15:55:19.627Z,22.61
2023-05-13T16:24:02.555Z,22.84
2023-05-13T16:52:56.408Z,23.05
2023-05-13T17:21:49.352Z,23.09
2023-05-13T17:50:39.125Z,23.01
2023-05-13T18:19:29.715Z,22.95
2023-05-13T18:48:23.478Z,22.82
2023-05-13T19:17:21.563Z,22.73
2023-05-13T19:45:59.727Z,22.64
2023-05-13T20:14:52.478Z,22.57
2023-05-13T20:43:44.615Z,22.51
2023-05-13T21:12:30.396Z,22.45
2023-05-13T21:41:31.560Z,22.39
2023-05-13T22:10:34.476Z,22.35
2023-05-13T22:39:30.260Z,22.31
2023-05-13T23:08:27.220Z,22.27
2023-05-13T23:37:29.923Z,22.24
